Ashland, North Carolina
Current Conditions -  °F | °C
As of 9:15 AM on Thursday 29 Jan 2015 (Local Time) from KGEV Reporting Station
Clear Clear  
Wind Chill: 32°   Ceiling: Unl
Heat Index: 32°   Visibility: 10mi
Dew Point: 16°   Wind: 3mph
Humidity: 52%   Direction: 160°SSE
Pressure: 30.16"   Gusts: NA
Location:  36.4481°N, 81.6486°W
Report Text: KGEV 291415Z AUTO 16003KT 10SM CLR 00/M09 A3016 RMK AO2 T00001089
Loading
Personal Weather Stations






























Interactive Weather Map New forecast layout! Learn more

10-Day Weather Forecast

Advertisements
Track Severe Weather on mobile